sensor_id;sensor_type;location;lat;lon;timestamp;P1;durP1;ratioP1;P2;durP2;ratioP2
39454;SDS011;25155;41.890;23.446;2022-08-20T00:00:33;5.25;;;3.97;;
39454;SDS011;25155;41.890;23.446;2022-08-20T00:03:05;5.38;;;4.40;;
39454;SDS011;25155;41.890;23.446;2022-08-20T00:08:01;7.35;;;5.80;;
39454;SDS011;25155;41.890;23.446;2022-08-20T00:10:31;5.63;;;4.70;;
39454;SDS011;25155;41.890;23.446;2022-08-20T00:13:00;5.13;;;4.38;;
39454;SDS011;25155;41.890;23.446;2022-08-20T00:15:28;5.57;;;3.80;;
39454;SDS011;25155;41.890;23.446;2022-08-20T00:17:57;4.45;;;3.30;;
39454;SDS011;25155;41.890;23.446;2022-08-20T00:20:27;4.60;;;3.70;;
39454;SDS011;25155;41.890;23.446;2022-08-20T00:22:57;5.15;;;3.40;;
39454;SDS011;25155;41.890;23.446;2022-08-20T00:25:26;5.75;;;3.35;;
39454;SDS011;25155;41.890;23.446;2022-08-20T00:27:54;5.35;;;4.45;;
39454;SDS011;25155;41.890;23.446;2022-08-20T00:30:22;5.22;;;3.67;;
39454;SDS011;25155;41.890;23.446;2022-08-20T00:32:51;5.65;;;4.22;;
39454;SDS011;25155;41.890;23.446;2022-08-20T00:35:26;4.85;;;4.15;;
39454;SDS011;25155;41.890;23.446;2022-08-20T00:37:57;5.20;;;3.90;;
39454;SDS011;25155;41.890;23.446;2022-08-20T00:40:30;4.78;;;3.95;;
39454;SDS011;25155;41.890;23.446;2022-08-20T00:43:01;8.48;;;6.13;;
39454;SDS011;25155;41.890;23.446;2022-08-20T00:45:30;7.63;;;5.75;;
39454;SDS011;25155;41.890;23.446;2022-08-20T00:47:59;8.70;;;5.38;;
39454;SDS011;25155;41.890;23.446;2022-08-20T00:50:31;5.22;;;4.25;;
39454;SDS011;25155;41.890;23.446;2022-08-20T00:53:01;4.65;;;3.90;;
39454;SDS011;25155;41.890;23.446;2022-08-20T00:55:32;7.07;;;4.53;;
39454;SDS011;25155;41.890;23.446;2022-08-20T00:58:03;6.20;;;5.05;;
39454;SDS011;25155;41.890;23.446;2022-08-20T01:00:35;5.95;;;5.13;;
39454;SDS011;25155;41.890;23.446;2022-08-20T01:03:03;7.13;;;6.00;;
39454;SDS011;25155;41.890;23.446;2022-08-20T01:05:34;7.70;;;5.47;;
39454;SDS011;25155;41.890;23.446;2022-08-20T01:08:01;5.45;;;4.43;;
39454;SDS011;25155;41.890;23.446;2022-08-20T01:10:31;6.32;;;4.53;;
39454;SDS011;25155;41.890;23.446;2022-08-20T01:13:02;5.45;;;4.22;;
39454;SDS011;25155;41.890;23.446;2022-08-20T01:15:34;4.80;;;3.80;;
39454;SDS011;25155;41.890;23.446;2022-08-20T01:18:04;6.45;;;4.80;;
39454;SDS011;25155;41.890;23.446;2022-08-20T01:20:37;6.57;;;5.10;;
39454;SDS011;25155;41.890;23.446;2022-08-20T01:23:15;4.90;;;4.05;;
39454;SDS011;25155;41.890;23.446;2022-08-20T01:25:57;4.65;;;3.67;;
39454;SDS011;25155;41.890;23.446;2022-08-20T01:28:30;4.80;;;3.60;;
39454;SDS011;25155;41.890;23.446;2022-08-20T01:31:02;5.55;;;3.97;;
39454;SDS011;25155;41.890;23.446;2022-08-20T01:33:30;5.88;;;4.68;;
39454;SDS011;25155;41.890;23.446;2022-08-20T01:35:58;5.20;;;4.38;;
39454;SDS011;25155;41.890;23.446;2022-08-20T01:38:26;5.45;;;3.90;;
39454;SDS011;25155;41.890;23.446;2022-08-20T01:41:17;4.78;;;3.80;;
39454;SDS011;25155;41.890;23.446;2022-08-20T01:43:52;5.53;;;4.50;;
39454;SDS011;25155;41.890;23.446;2022-08-20T01:46:21;4.85;;;4.00;;
39454;SDS011;25155;41.890;23.446;2022-08-20T01:48:50;5.07;;;3.92;;
39454;SDS011;25155;41.890;23.446;2022-08-20T01:51:20;5.18;;;4.20;;
39454;SDS011;25155;41.890;23.446;2022-08-20T01:53:51;5.50;;;4.20;;
39454;SDS011;25155;41.890;23.446;2022-08-20T01:56:22;5.45;;;4.50;;
39454;SDS011;25155;41.890;23.446;2022-08-20T01:58:52;5.90;;;4.60;;
39454;SDS011;25155;41.890;23.446;2022-08-20T02:01:24;5.90;;;4.78;;
39454;SDS011;25155;41.890;23.446;2022-08-20T02:03:53;7.43;;;5.75;;
39454;SDS011;25155;41.890;23.446;2022-08-20T02:06:22;5.50;;;4.47;;
39454;SDS011;25155;41.890;23.446;2022-08-20T02:08:52;6.70;;;5.25;;
39454;SDS011;25155;41.890;23.446;2022-08-20T02:11:22;6.47;;;4.97;;
39454;SDS011;25155;41.890;23.446;2022-08-20T02:13:50;4.70;;;3.92;;
39454;SDS011;25155;41.890;23.446;2022-08-20T02:16:19;4.90;;;3.97;;
39454;SDS011;25155;41.890;23.446;2022-08-20T02:18:49;5.63;;;4.20;;
39454;SDS011;25155;41.890;23.446;2022-08-20T02:21:22;4.50;;;3.65;;
39454;SDS011;25155;41.890;23.446;2022-08-20T02:23:52;6.50;;;5.45;;
39454;SDS011;25155;41.890;23.446;2022-08-20T02:26:22;4.93;;;3.92;;
39454;SDS011;25155;41.890;23.446;2022-08-20T02:28:50;4.85;;;3.88;;
39454;SDS011;25155;41.890;23.446;2022-08-20T02:31:20;4.10;;;3.33;;
39454;SDS011;25155;41.890;23.446;2022-08-20T02:33:50;5.05;;;4.03;;
39454;SDS011;25155;41.890;23.446;2022-08-20T02:36:17;6.60;;;5.20;;
39454;SDS011;25155;41.890;23.446;2022-08-20T02:38:45;6.85;;;5.55;;
39454;SDS011;25155;41.890;23.446;2022-08-20T02:41:13;5.30;;;4.20;;
39454;SDS011;25155;41.890;23.446;2022-08-20T02:43:42;4.70;;;3.90;;
39454;SDS011;25155;41.890;23.446;2022-08-20T02:46:09;4.63;;;3.78;;
39454;SDS011;25155;41.890;23.446;2022-08-20T02:48:37;4.90;;;4.10;;
39454;SDS011;25155;41.890;23.446;2022-08-20T02:51:05;6.47;;;5.40;;
39454;SDS011;25155;41.890;23.446;2022-08-20T02:53:33;5.07;;;4.40;;
39454;SDS011;25155;41.890;23.446;2022-08-20T02:56:03;6.30;;;4.78;;
39454;SDS011;25155;41.890;23.446;2022-08-20T02:58:31;5.38;;;3.90;;
39454;SDS011;25155;41.890;23.446;2022-08-20T03:01:01;4.40;;;3.50;;
39454;SDS011;25155;41.890;23.446;2022-08-20T03:03:30;4.72;;;3.70;;
39454;SDS011;25155;41.890;23.446;2022-08-20T03:05:59;7.40;;;5.43;;
39454;SDS011;25155;41.890;23.446;2022-08-20T03:08:27;5.50;;;4.47;;
39454;SDS011;25155;41.890;23.446;2022-08-20T03:10:55;5.43;;;4.10;;
39454;SDS011;25155;41.890;23.446;2022-08-20T03:13:23;4.47;;;3.70;;
39454;SDS011;25155;41.890;23.446;2022-08-20T03:15:51;4.90;;;3.90;;
39454;SDS011;25155;41.890;23.446;2022-08-20T03:18:23;5.28;;;4.05;;
39454;SDS011;25155;41.890;23.446;2022-08-20T03:20:55;6.30;;;5.13;;
39454;SDS011;25155;41.890;23.446;2022-08-20T03:23:22;6.43;;;4.25;;
39454;SDS011;25155;41.890;23.446;2022-08-20T03:25:50;6.30;;;5.13;;
39454;SDS011;25155;41.890;23.446;2022-08-20T03:28:17;7.70;;;6.47;;
39454;SDS011;25155;41.890;23.446;2022-08-20T03:30:45;9.57;;;6.82;;
39454;SDS011;25155;41.890;23.446;2022-08-20T03:33:12;10.50;;;8.32;;
39454;SDS011;25155;41.890;23.446;2022-08-20T03:35:42;11.30;;;8.23;;
39454;SDS011;25155;41.890;23.446;2022-08-20T03:38:10;9.02;;;7.93;;
39454;SDS011;25155;41.890;23.446;2022-08-20T03:40:39;7.43;;;6.60;;
39454;SDS011;25155;41.890;23.446;2022-08-20T03:43:07;7.07;;;6.13;;
39454;SDS011;25155;41.890;23.446;2022-08-20T03:45:36;9.02;;;6.75;;
39454;SDS011;25155;41.890;23.446;2022-08-20T03:48:06;9.60;;;6.30;;
39454;SDS011;25155;41.890;23.446;2022-08-20T03:50:35;10.15;;;9.07;;
39454;SDS011;25155;41.890;23.446;2022-08-20T03:53:05;7.78;;;6.97;;
39454;SDS011;25155;41.890;23.446;2022-08-20T03:55:32;7.75;;;6.65;;
39454;SDS011;25155;41.890;23.446;2022-08-20T03:58:01;7.78;;;5.93;;
39454;SDS011;25155;41.890;23.446;2022-08-20T04:03:02;13.93;;;9.43;;
39454;SDS011;25155;41.890;23.446;2022-08-20T04:05:33;10.02;;;7.38;;
39454;SDS011;25155;41.890;23.446;2022-08-20T04:08:07;6.85;;;6.07;;
39454;SDS011;25155;41.890;23.446;2022-08-20T04:10:36;5.95;;;4.72;;
39454;SDS011;25155;41.890;23.446;2022-08-20T04:13:04;5.95;;;4.70;;
39454;SDS011;25155;41.890;23.446;2022-08-20T04:15:32;5.65;;;4.63;;
39454;SDS011;25155;41.890;23.446;2022-08-20T04:18:01;5.93;;;5.20;;
39454;SDS011;25155;41.890;23.446;2022-08-20T04:20:32;9.30;;;8.30;;
39454;SDS011;25155;41.890;23.446;2022-08-20T04:23:00;10.75;;;9.43;;
39454;SDS011;25155;41.890;23.446;2022-08-20T04:25:30;11.60;;;10.40;;
39454;SDS011;25155;41.890;23.446;2022-08-20T04:27:58;11.50;;;9.43;;
39454;SDS011;25155;41.890;23.446;2022-08-20T04:30:27;12.05;;;9.98;;
39454;SDS011;25155;41.890;23.446;2022-08-20T04:32:55;10.60;;;8.95;;
39454;SDS011;25155;41.890;23.446;2022-08-20T04:35:24;10.95;;;9.40;;
39454;SDS011;25155;41.890;23.446;2022-08-20T04:37:56;12.13;;;9.93;;
39454;SDS011;25155;41.890;23.446;2022-08-20T04:40:26;8.93;;;7.40;;
39454;SDS011;25155;41.890;23.446;2022-08-20T04:43:13;9.68;;;7.85;;
39454;SDS011;25155;41.890;23.446;2022-08-20T04:45:41;10.63;;;8.68;;
39454;SDS011;25155;41.890;23.446;2022-08-20T04:48:09;10.77;;;8.30;;
39454;SDS011;25155;41.890;23.446;2022-08-20T04:50:37;7.90;;;7.10;;
39454;SDS011;25155;41.890;23.446;2022-08-20T04:53:05;9.40;;;6.90;;
39454;SDS011;25155;41.890;23.446;2022-08-20T04:55:37;6.28;;;5.50;;
39454;SDS011;25155;41.890;23.446;2022-08-20T04:58:07;9.32;;;7.15;;
39454;SDS011;25155;41.890;23.446;2022-08-20T05:00:37;9.63;;;8.13;;
39454;SDS011;25155;41.890;23.446;2022-08-20T05:03:04;9.93;;;8.40;;
39454;SDS011;25155;41.890;23.446;2022-08-20T05:05:32;9.48;;;8.35;;
39454;SDS011;25155;41.890;23.446;2022-08-20T05:08:00;7.47;;;6.70;;
39454;SDS011;25155;41.890;23.446;2022-08-20T05:10:27;6.05;;;5.45;;
39454;SDS011;25155;41.890;23.446;2022-08-20T05:12:55;9.20;;;7.45;;
39454;SDS011;25155;41.890;23.446;2022-08-20T05:15:23;8.45;;;6.90;;
39454;SDS011;25155;41.890;23.446;2022-08-20T05:17:54;6.47;;;5.60;;
39454;SDS011;25155;41.890;23.446;2022-08-20T05:20:25;8.65;;;7.03;;
39454;SDS011;25155;41.890;23.446;2022-08-20T05:22:55;9.88;;;7.75;;
39454;SDS011;25155;41.890;23.446;2022-08-20T05:25:23;9.90;;;8.32;;
39454;SDS011;25155;41.890;23.446;2022-08-20T05:27:54;10.15;;;8.25;;
39454;SDS011;25155;41.890;23.446;2022-08-20T05:32:55;9.27;;;7.88;;
39454;SDS011;25155;41.890;23.446;2022-08-20T05:35:23;9.20;;;6.85;;
39454;SDS011;25155;41.890;23.446;2022-08-20T05:37:51;8.90;;;7.72;;
39454;SDS011;25155;41.890;23.446;2022-08-20T05:40:19;7.47;;;6.68;;
39454;SDS011;25155;41.890;23.446;2022-08-20T05:42:47;7.80;;;7.00;;
39454;SDS011;25155;41.890;23.446;2022-08-20T05:45:18;9.73;;;8.48;;
39454;SDS011;25155;41.890;23.446;2022-08-20T05:47:46;10.25;;;9.18;;
39454;SDS011;25155;41.890;23.446;2022-08-20T05:50:15;12.60;;;10.02;;
39454;SDS011;25155;41.890;23.446;2022-08-20T05:52:43;14.23;;;9.80;;
39454;SDS011;25155;41.890;23.446;2022-08-20T05:55:11;9.27;;;8.27;;
39454;SDS011;25155;41.890;23.446;2022-08-20T05:57:40;10.40;;;9.27;;
39454;SDS011;25155;41.890;23.446;2022-08-20T06:00:10;10.80;;;9.70;;
39454;SDS011;25155;41.890;23.446;2022-08-20T06:02:39;9.17;;;8.27;;
39454;SDS011;25155;41.890;23.446;2022-08-20T06:05:26;11.23;;;9.93;;
39454;SDS011;25155;41.890;23.446;2022-08-20T06:07:54;11.68;;;10.48;;
39454;SDS011;25155;41.890;23.446;2022-08-20T06:10:21;10.43;;;9.32;;
39454;SDS011;25155;41.890;23.446;2022-08-20T06:12:48;10.70;;;9.60;;
39454;SDS011;25155;41.890;23.446;2022-08-20T06:15:17;10.38;;;9.32;;
39454;SDS011;25155;41.890;23.446;2022-08-20T06:17:45;10.95;;;9.82;;
39454;SDS011;25155;41.890;23.446;2022-08-20T06:20:12;13.77;;;12.38;;
39454;SDS011;25155;41.890;23.446;2022-08-20T06:22:41;12.93;;;11.18;;
39454;SDS011;25155;41.890;23.446;2022-08-20T06:25:09;13.02;;;11.73;;
39454;SDS011;25155;41.890;23.446;2022-08-20T06:27:36;13.52;;;11.27;;
39454;SDS011;25155;41.890;23.446;2022-08-20T06:30:05;12.88;;;11.48;;
39454;SDS011;25155;41.890;23.446;2022-08-20T06:32:34;13.63;;;11.48;;
39454;SDS011;25155;41.890;23.446;2022-08-20T06:35:02;11.65;;;10.45;;
39454;SDS011;25155;41.890;23.446;2022-08-20T06:37:32;17.13;;;15.43;;
39454;SDS011;25155;41.890;23.446;2022-08-20T06:40:03;14.02;;;12.60;;
39454;SDS011;25155;41.890;23.446;2022-08-20T06:42:33;12.65;;;10.85;;
39454;SDS011;25155;41.890;23.446;2022-08-20T06:45:00;13.95;;;10.98;;
39454;SDS011;25155;41.890;23.446;2022-08-20T06:47:30;13.13;;;10.18;;
39454;SDS011;25155;41.890;23.446;2022-08-20T06:49:58;19.00;;;14.90;;
39454;SDS011;25155;41.890;23.446;2022-08-20T06:52:25;14.00;;;12.00;;
39454;SDS011;25155;41.890;23.446;2022-08-20T06:54:53;14.48;;;12.27;;
39454;SDS011;25155;41.890;23.446;2022-08-20T06:57:22;13.40;;;12.00;;
39454;SDS011;25155;41.890;23.446;2022-08-20T06:59:49;14.93;;;12.45;;
39454;SDS011;25155;41.890;23.446;2022-08-20T07:02:17;13.68;;;11.80;;
39454;SDS011;25155;41.890;23.446;2022-08-20T07:04:44;15.98;;;12.18;;
39454;SDS011;25155;41.890;23.446;2022-08-20T07:07:14;14.23;;;10.52;;
39454;SDS011;25155;41.890;23.446;2022-08-20T07:09:43;14.13;;;11.50;;
39454;SDS011;25155;41.890;23.446;2022-08-20T07:12:11;11.63;;;10.40;;
39454;SDS011;25155;41.890;23.446;2022-08-20T07:14:40;17.13;;;13.32;;
39454;SDS011;25155;41.890;23.446;2022-08-20T07:17:07;13.70;;;12.00;;
39454;SDS011;25155;41.890;23.446;2022-08-20T07:19:36;14.48;;;12.90;;
39454;SDS011;25155;41.890;23.446;2022-08-20T07:22:03;14.88;;;13.00;;
39454;SDS011;25155;41.890;23.446;2022-08-20T07:24:31;14.32;;;12.80;;
39454;SDS011;25155;41.890;23.446;2022-08-20T07:26:59;12.23;;;10.88;;
39454;SDS011;25155;41.890;23.446;2022-08-20T07:29:26;13.82;;;12.40;;
39454;SDS011;25155;41.890;23.446;2022-08-20T07:32:15;13.10;;;11.80;;
39454;SDS011;25155;41.890;23.446;2022-08-20T07:35:01;12.10;;;10.90;;
39454;SDS011;25155;41.890;23.446;2022-08-20T07:37:30;13.57;;;11.95;;
39454;SDS011;25155;41.890;23.446;2022-08-20T07:39:57;14.65;;;13.10;;
39454;SDS011;25155;41.890;23.446;2022-08-20T07:42:25;13.75;;;11.27;;
39454;SDS011;25155;41.890;23.446;2022-08-20T07:44:53;17.80;;;15.45;;
39454;SDS011;25155;41.890;23.446;2022-08-20T07:47:27;14.60;;;13.10;;
39454;SDS011;25155;41.890;23.446;2022-08-20T07:49:54;15.80;;;14.07;;
39454;SDS011;25155;41.890;23.446;2022-08-20T07:52:21;15.25;;;13.65;;
39454;SDS011;25155;41.890;23.446;2022-08-20T07:54:49;15.50;;;12.90;;
39454;SDS011;25155;41.890;23.446;2022-08-20T07:57:16;15.13;;;13.52;;
39454;SDS011;25155;41.890;23.446;2022-08-20T07:59:43;14.60;;;13.07;;
39454;SDS011;25155;41.890;23.446;2022-08-20T08:02:10;12.60;;;11.30;;
39454;SDS011;25155;41.890;23.446;2022-08-20T08:04:39;13.55;;;12.10;;
39454;SDS011;25155;41.890;23.446;2022-08-20T08:07:07;11.65;;;10.45;;
39454;SDS011;25155;41.890;23.446;2022-08-20T08:09:34;11.05;;;9.93;;
39454;SDS011;25155;41.890;23.446;2022-08-20T08:12:02;10.45;;;9.35;;
39454;SDS011;25155;41.890;23.446;2022-08-20T08:14:30;10.18;;;9.18;;
39454;SDS011;25155;41.890;23.446;2022-08-20T08:17:01;8.38;;;7.00;;
39454;SDS011;25155;41.890;23.446;2022-08-20T08:19:31;8.40;;;6.70;;
39454;SDS011;25155;41.890;23.446;2022-08-20T08:22:06;8.90;;;7.38;;
39454;SDS011;25155;41.890;23.446;2022-08-20T08:24:35;7.20;;;5.97;;
39454;SDS011;25155;41.890;23.446;2022-08-20T08:27:03;9.80;;;7.35;;
39454;SDS011;25155;41.890;23.446;2022-08-20T08:29:32;7.70;;;6.90;;
39454;SDS011;25155;41.890;23.446;2022-08-20T08:32:00;8.73;;;7.10;;
39454;SDS011;25155;41.890;23.446;2022-08-20T08:34:28;7.07;;;6.22;;
39454;SDS011;25155;41.890;23.446;2022-08-20T08:36:57;8.85;;;7.28;;
39454;SDS011;25155;41.890;23.446;2022-08-20T08:39:28;9.75;;;7.15;;
39454;SDS011;25155;41.890;23.446;2022-08-20T08:41:56;8.15;;;7.10;;
39454;SDS011;25155;41.890;23.446;2022-08-20T08:44:28;7.78;;;6.90;;
39454;SDS011;25155;41.890;23.446;2022-08-20T08:47:00;10.20;;;7.03;;
39454;SDS011;25155;41.890;23.446;2022-08-20T08:49:30;8.35;;;7.55;;
39454;SDS011;25155;41.890;23.446;2022-08-20T08:52:00;7.22;;;6.53;;
39454;SDS011;25155;41.890;23.446;2022-08-20T08:54:34;6.47;;;5.80;;
39454;SDS011;25155;41.890;23.446;2022-08-20T08:57:01;8.07;;;7.03;;
39454;SDS011;25155;41.890;23.446;2022-08-20T08:59:31;7.10;;;6.23;;
39454;SDS011;25155;41.890;23.446;2022-08-20T09:01:59;7.93;;;7.13;;
39454;SDS011;25155;41.890;23.446;2022-08-20T09:04:32;8.57;;;7.68;;
39454;SDS011;25155;41.890;23.446;2022-08-20T09:07:02;7.90;;;7.10;;
39454;SDS011;25155;41.890;23.446;2022-08-20T09:12:04;7.72;;;6.97;;
39454;SDS011;25155;41.890;23.446;2022-08-20T09:14:34;9.30;;;7.10;;
39454;SDS011;25155;41.890;23.446;2022-08-20T09:17:02;7.82;;;6.95;;
39454;SDS011;25155;41.890;23.446;2022-08-20T09:19:30;6.90;;;6.20;;
39454;SDS011;25155;41.890;23.446;2022-08-20T09:21:57;6.88;;;5.80;;
39454;SDS011;25155;41.890;23.446;2022-08-20T09:24:25;8.35;;;6.38;;
39454;SDS011;25155;41.890;23.446;2022-08-20T09:26:54;7.40;;;6.65;;
39454;SDS011;25155;41.890;23.446;2022-08-20T09:29:21;8.48;;;6.07;;
39454;SDS011;25155;41.890;23.446;2022-08-20T09:31:48;8.88;;;7.63;;
39454;SDS011;25155;41.890;23.446;2022-08-20T09:34:15;7.25;;;6.07;;
39454;SDS011;25155;41.890;23.446;2022-08-20T09:36:43;9.27;;;6.78;;
39454;SDS011;25155;41.890;23.446;2022-08-20T09:39:10;9.18;;;7.25;;
39454;SDS011;25155;41.890;23.446;2022-08-20T09:41:37;7.78;;;6.53;;
39454;SDS011;25155;41.890;23.446;2022-08-20T09:44:07;6.63;;;5.90;;
39454;SDS011;25155;41.890;23.446;2022-08-20T09:46:34;6.50;;;5.90;;
39454;SDS011;25155;41.890;23.446;2022-08-20T09:49:01;5.22;;;4.63;;
39454;SDS011;25155;41.890;23.446;2022-08-20T09:51:29;7.07;;;5.93;;
39454;SDS011;25155;41.890;23.446;2022-08-20T09:53:57;7.93;;;7.13;;
39454;SDS011;25155;41.890;23.446;2022-08-20T09:56:26;7.70;;;6.60;;
39454;SDS011;25155;41.890;23.446;2022-08-20T09:58:55;7.35;;;6.47;;
39454;SDS011;25155;41.890;23.446;2022-08-20T10:01:24;5.70;;;5.10;;
39454;SDS011;25155;41.890;23.446;2022-08-20T10:03:51;7.38;;;5.43;;
39454;SDS011;25155;41.890;23.446;2022-08-20T10:06:18;7.20;;;6.03;;
39454;SDS011;25155;41.890;23.446;2022-08-20T10:08:46;9.88;;;6.78;;
39454;SDS011;25155;41.890;23.446;2022-08-20T10:11:14;6.85;;;6.00;;
39454;SDS011;25155;41.890;23.446;2022-08-20T10:13:42;12.75;;;7.35;;
39454;SDS011;25155;41.890;23.446;2022-08-20T10:16:09;32.65;;;8.77;;
39454;SDS011;25155;41.890;23.446;2022-08-20T10:18:38;7.53;;;5.90;;
39454;SDS011;25155;41.890;23.446;2022-08-20T10:21:07;7.07;;;6.32;;
39454;SDS011;25155;41.890;23.446;2022-08-20T10:23:35;6.43;;;5.68;;
39454;SDS011;25155;41.890;23.446;2022-08-20T10:26:02;7.22;;;6.10;;
39454;SDS011;25155;41.890;23.446;2022-08-20T10:28:30;7.88;;;6.20;;
39454;SDS011;25155;41.890;23.446;2022-08-20T10:30:57;8.35;;;6.65;;
39454;SDS011;25155;41.890;23.446;2022-08-20T10:33:24;6.70;;;5.95;;
39454;SDS011;25155;41.890;23.446;2022-08-20T10:35:53;5.82;;;5.20;;
39454;SDS011;25155;41.890;23.446;2022-08-20T10:38:20;6.43;;;5.10;;
39454;SDS011;25155;41.890;23.446;2022-08-20T10:40:47;5.70;;;4.75;;
39454;SDS011;25155;41.890;23.446;2022-08-20T10:43:14;8.52;;;5.50;;
39454;SDS011;25155;41.890;23.446;2022-08-20T10:45:42;7.63;;;6.32;;
39454;SDS011;25155;41.890;23.446;2022-08-20T10:48:09;7.40;;;6.38;;
39454;SDS011;25155;41.890;23.446;2022-08-20T10:50:36;8.35;;;5.95;;
39454;SDS011;25155;41.890;23.446;2022-08-20T10:53:05;9.30;;;6.40;;
39454;SDS011;25155;41.890;23.446;2022-08-20T10:55:32;9.75;;;6.30;;
39454;SDS011;25155;41.890;23.446;2022-08-20T10:58:00;7.90;;;6.13;;
39454;SDS011;25155;41.890;23.446;2022-08-20T11:00:30;6.53;;;5.68;;
39454;SDS011;25155;41.890;23.446;2022-08-20T11:02:58;8.45;;;5.60;;
39454;SDS011;25155;41.890;23.446;2022-08-20T11:05:26;8.15;;;6.00;;
39454;SDS011;25155;41.890;23.446;2022-08-20T11:07:53;7.63;;;6.07;;
39454;SDS011;25155;41.890;23.446;2022-08-20T11:10:22;7.38;;;6.35;;
39454;SDS011;25155;41.890;23.446;2022-08-20T11:12:50;6.28;;;5.32;;
39454;SDS011;25155;41.890;23.446;2022-08-20T11:15:18;7.00;;;5.90;;
39454;SDS011;25155;41.890;23.446;2022-08-20T11:17:45;6.43;;;5.60;;
39454;SDS011;25155;41.890;23.446;2022-08-20T11:20:13;7.15;;;6.00;;
39454;SDS011;25155;41.890;23.446;2022-08-20T11:22:43;6.85;;;6.05;;
39454;SDS011;25155;41.890;23.446;2022-08-20T11:25:11;8.15;;;5.75;;
39454;SDS011;25155;41.890;23.446;2022-08-20T11:27:41;7.28;;;5.60;;
39454;SDS011;25155;41.890;23.446;2022-08-20T11:30:11;6.30;;;5.35;;
39454;SDS011;25155;41.890;23.446;2022-08-20T11:32:40;7.97;;;6.03;;
39454;SDS011;25155;41.890;23.446;2022-08-20T11:35:08;8.57;;;6.30;;
39454;SDS011;25155;41.890;23.446;2022-08-20T11:37:36;6.75;;;5.60;;
39454;SDS011;25155;41.890;23.446;2022-08-20T11:40:03;6.07;;;5.15;;
39454;SDS011;25155;41.890;23.446;2022-08-20T11:42:32;8.45;;;5.20;;
39454;SDS011;25155;41.890;23.446;2022-08-20T11:45:01;8.20;;;5.10;;
39454;SDS011;25155;41.890;23.446;2022-08-20T11:47:29;7.55;;;4.97;;
39454;SDS011;25155;41.890;23.446;2022-08-20T11:49:58;5.90;;;5.00;;
39454;SDS011;25155;41.890;23.446;2022-08-20T11:52:26;8.38;;;5.80;;
39454;SDS011;25155;41.890;23.446;2022-08-20T11:54:54;6.07;;;4.85;;
39454;SDS011;25155;41.890;23.446;2022-08-20T11:57:22;8.43;;;5.10;;
39454;SDS011;25155;41.890;23.446;2022-08-20T11:59:51;5.60;;;4.07;;
39454;SDS011;25155;41.890;23.446;2022-08-20T12:02:21;8.93;;;5.70;;
39454;SDS011;25155;41.890;23.446;2022-08-20T12:04:48;9.50;;;5.55;;
39454;SDS011;25155;41.890;23.446;2022-08-20T12:07:16;8.57;;;5.45;;
39454;SDS011;25155;41.890;23.446;2022-08-20T12:09:45;8.90;;;5.90;;
39454;SDS011;25155;41.890;23.446;2022-08-20T12:12:13;9.30;;;5.57;;
39454;SDS011;25155;41.890;23.446;2022-08-20T12:14:41;6.72;;;4.90;;
39454;SDS011;25155;41.890;23.446;2022-08-20T12:17:08;6.53;;;4.70;;
39454;SDS011;25155;41.890;23.446;2022-08-20T12:19:39;9.07;;;5.22;;
39454;SDS011;25155;41.890;23.446;2022-08-20T12:22:08;7.18;;;5.13;;
39454;SDS011;25155;41.890;23.446;2022-08-20T12:24:37;11.75;;;6.28;;
39454;SDS011;25155;41.890;23.446;2022-08-20T12:27:08;6.28;;;4.75;;
39454;SDS011;25155;41.890;23.446;2022-08-20T12:29:36;8.93;;;6.03;;
39454;SDS011;25155;41.890;23.446;2022-08-20T12:32:04;6.47;;;4.97;;
39454;SDS011;25155;41.890;23.446;2022-08-20T12:34:33;7.30;;;4.72;;
39454;SDS011;25155;41.890;23.446;2022-08-20T12:37:06;8.13;;;5.70;;
39454;SDS011;25155;41.890;23.446;2022-08-20T12:39:36;7.43;;;5.30;;
39454;SDS011;25155;41.890;23.446;2022-08-20T12:42:04;7.93;;;5.60;;
39454;SDS011;25155;41.890;23.446;2022-08-20T12:44:32;7.20;;;5.80;;
39454;SDS011;25155;41.890;23.446;2022-08-20T12:47:07;8.48;;;6.22;;
39454;SDS011;25155;41.890;23.446;2022-08-20T12:49:35;6.30;;;4.90;;
39454;SDS011;25155;41.890;23.446;2022-08-20T12:52:05;8.07;;;6.35;;
39454;SDS011;25155;41.890;23.446;2022-08-20T12:54:33;7.60;;;5.65;;
39454;SDS011;25155;41.890;23.446;2022-08-20T12:57:02;5.78;;;5.00;;
39454;SDS011;25155;41.890;23.446;2022-08-20T12:59:37;8.73;;;5.85;;
39454;SDS011;25155;41.890;23.446;2022-08-20T13:02:41;6.00;;;5.35;;
39454;SDS011;25155;41.890;23.446;2022-08-20T13:05:47;7.88;;;5.18;;
39454;SDS011;25155;41.890;23.446;2022-08-20T13:18:29;6.82;;;5.22;;
39454;SDS011;25155;41.890;23.446;2022-08-20T13:23:26;6.95;;;5.63;;
39454;SDS011;25155;41.890;23.446;2022-08-20T13:25:55;7.95;;;5.63;;
39454;SDS011;25155;41.890;23.446;2022-08-20T13:28:24;10.25;;;5.68;;
39454;SDS011;25155;41.890;23.446;2022-08-20T13:30:55;9.82;;;5.47;;
39454;SDS011;25155;41.890;23.446;2022-08-20T13:33:23;6.57;;;5.38;;
39454;SDS011;25155;41.890;23.446;2022-08-20T13:35:54;8.77;;;5.88;;
39454;SDS011;25155;41.890;23.446;2022-08-20T13:38:23;8.60;;;6.32;;
39454;SDS011;25155;41.890;23.446;2022-08-20T13:40:52;7.32;;;5.28;;
39454;SDS011;25155;41.890;23.446;2022-08-20T13:43:22;8.40;;;5.63;;
39454;SDS011;25155;41.890;23.446;2022-08-20T13:45:51;5.73;;;5.03;;
39454;SDS011;25155;41.890;23.446;2022-08-20T13:48:21;6.30;;;5.10;;
39454;SDS011;25155;41.890;23.446;2022-08-20T13:50:50;5.22;;;4.15;;
39454;SDS011;25155;41.890;23.446;2022-08-20T13:53:20;6.38;;;4.78;;
39454;SDS011;25155;41.890;23.446;2022-08-20T13:55:48;5.32;;;4.65;;
39454;SDS011;25155;41.890;23.446;2022-08-20T13:58:17;6.75;;;5.25;;
39454;SDS011;25155;41.890;23.446;2022-08-20T14:00:47;5.45;;;4.57;;
39454;SDS011;25155;41.890;23.446;2022-08-20T14:03:17;9.13;;;4.70;;
39454;SDS011;25155;41.890;23.446;2022-08-20T14:05:46;5.70;;;4.75;;
39454;SDS011;25155;41.890;23.446;2022-08-20T14:08:15;6.40;;;4.57;;
39454;SDS011;25155;41.890;23.446;2022-08-20T14:10:47;8.77;;;4.60;;
39454;SDS011;25155;41.890;23.446;2022-08-20T14:13:17;5.40;;;4.18;;
39454;SDS011;25155;41.890;23.446;2022-08-20T14:15:47;6.63;;;4.73;;
39454;SDS011;25155;41.890;23.446;2022-08-20T14:18:16;6.38;;;4.85;;
39454;SDS011;25155;41.890;23.446;2022-08-20T14:20:46;5.60;;;4.47;;
39454;SDS011;25155;41.890;23.446;2022-08-20T14:23:15;5.10;;;4.10;;
39454;SDS011;25155;41.890;23.446;2022-08-20T14:25:44;7.13;;;4.13;;
39454;SDS011;25155;41.890;23.446;2022-08-20T14:28:16;6.47;;;4.43;;
39454;SDS011;25155;41.890;23.446;2022-08-20T14:30:48;5.95;;;4.65;;
39454;SDS011;25155;41.890;23.446;2022-08-20T14:33:17;5.72;;;4.15;;
39454;SDS011;25155;41.890;23.446;2022-08-20T14:35:47;5.22;;;3.88;;
39454;SDS011;25155;41.890;23.446;2022-08-20T14:38:17;5.45;;;3.75;;
39454;SDS011;25155;41.890;23.446;2022-08-20T14:40:48;5.18;;;3.80;;
39454;SDS011;25155;41.890;23.446;2022-08-20T14:45:45;5.07;;;4.13;;
39454;SDS011;25155;41.890;23.446;2022-08-20T14:48:13;5.80;;;4.65;;
39454;SDS011;25155;41.890;23.446;2022-08-20T14:50:42;7.22;;;4.97;;
39454;SDS011;25155;41.890;23.446;2022-08-20T14:53:11;10.57;;;5.95;;
39454;SDS011;25155;41.890;23.446;2022-08-20T14:55:40;8.52;;;5.55;;
39454;SDS011;25155;41.890;23.446;2022-08-20T14:58:11;9.15;;;5.45;;
39454;SDS011;25155;41.890;23.446;2022-08-20T15:00:41;8.05;;;5.32;;
39454;SDS011;25155;41.890;23.446;2022-08-20T15:03:11;8.65;;;4.82;;
39454;SDS011;25155;41.890;23.446;2022-08-20T15:05:40;10.18;;;6.20;;
39454;SDS011;25155;41.890;23.446;2022-08-20T15:08:10;11.23;;;6.13;;